Terminal Aerodrome Forecast
Issued by NWS Buffalo, NY

Home | Current Version | Previous Version | Text Only | Print | Product List | Glossary On
Versions: 1 2 3 4 5 6 7 8 9 10 11 12 13 14 15 16 17 18 19 20 21 22 23 24 25 26 27
667
FTUS41 KBUF 061435 AAA
TAFART
TAF AMD
KART 061435Z 0614/0712 04006KT P6SM FEW200
     FM061600 03012KT P6SM SCT120
     FM062000 03010KT P6SM BKN060
     FM070000 03005KT P6SM BKN040
     FM070300 VRB03KT P6SM BKN035
     FM070800 15006KT P6SM BKN035=

USA.gov is the U.S. government's official web portal to all federal, state and local government web resources and services.